createdAt,value
2017-05-12T04:40:13.351Z,21.04
2017-05-12T04:41:15.277Z,21.04
2017-05-12T04:42:15.494Z,21.04
2017-05-12T04:43:15.304Z,21.05
2017-05-12T04:44:15.352Z,21.08
2017-05-12T04:45:14.920Z,21.05
2017-05-12T04:46:15.686Z,21.58
2017-05-12T04:47:16.091Z,21.63
2017-05-12T04:48:15.092Z,21.66
2017-05-12T04:49:17.778Z,21.15
2017-05-12T04:50:15.734Z,21.11
2017-05-12T04:51:16.182Z,21.09
2017-05-12T04:52:15.564Z,21.08
2017-05-12T04:53:15.782Z,21.08
2017-05-12T04:54:15.892Z,21.07
2017-05-12T04:55:17.352Z,21.06
2017-05-12T04:56:15.819Z,21.06
2017-05-12T04:57:15.201Z,21.09
2017-05-12T04:58:16.180Z,21.59
2017-05-12T04:59:14.929Z,21.63
2017-05-12T05:00:16.138Z,21.66
2017-05-12T05:01:15.032Z,21.15
2017-05-12T05:02:16.494Z,21.11
2017-05-12T05:03:15.582Z,21.08
2017-05-12T05:04:18.239Z,21.08
2017-05-12T05:05:16.347Z,21.07
2017-05-12T05:06:17.570Z,21.06
2017-05-12T05:07:13.704Z,21.05
2017-05-12T05:08:17.666Z,21.06
2017-05-12T05:09:16.115Z,21.06
2017-05-12T05:10:17.257Z,21.05
2017-05-12T05:11:14.729Z,21.05
2017-05-12T05:12:15.595Z,21.04
2017-05-12T05:13:15.737Z,21.05
2017-05-12T05:14:16.166Z,21.04
2017-05-12T05:15:14.769Z,21.04
2017-05-12T05:16:16.280Z,21.04
2017-05-12T05:17:17.867Z,21.04
2017-05-12T05:18:16.466Z,21.03
2017-05-12T05:19:14.785Z,21.04
2017-05-12T05:20:16.157Z,21.04
2017-05-12T05:21:16.591Z,21.04
2017-05-12T05:22:14.989Z,21.04
2017-05-12T05:23:15.025Z,21.04
2017-05-12T05:24:15.054Z,21.04
2017-05-12T05:25:15.431Z,21.04
2017-05-12T05:26:15.951Z,21.04
2017-05-12T05:27:15.796Z,21.02
2017-05-12T05:28:15.060Z,21.02
2017-05-12T05:29:14.897Z,21.01
2017-05-12T05:30:15.237Z,21.02
2017-05-12T05:31:18.120Z,21.01
2017-05-12T05:32:13.959Z,21.01
2017-05-12T05:33:15.401Z,21.00
2017-05-12T05:34:16.133Z,21.01
2017-05-12T05:35:18.103Z,21.02
2017-05-12T05:36:16.168Z,21.03
2017-05-12T05:37:15.281Z,21.04
2017-05-12T05:38:15.834Z,21.05
2017-05-12T05:39:14.709Z,21.06
2017-05-12T05:40:14.252Z,21.06
2017-05-12T05:41:15.655Z,21.08
2017-05-12T05:42:16.126Z,21.09
2017-05-12T05:43:15.528Z,21.11
2017-05-12T05:44:15.229Z,21.15
2017-05-12T05:45:13.684Z,21.64
2017-05-12T05:46:16.040Z,21.19
2017-05-12T05:47:14.829Z,21.17
2017-05-12T05:48:16.200Z,21.17
2017-05-12T05:49:15.443Z,21.23
2017-05-12T05:50:15.613Z,21.17
2017-05-12T05:51:13.704Z,21.16
2017-05-12T05:52:16.080Z,21.71
2017-05-12T05:53:15.333Z,21.76
2017-05-12T05:54:16.476Z,21.79
2017-05-12T05:55:15.286Z,21.81
2017-05-12T05:56:14.939Z,21.82
2017-05-12T05:57:15.399Z,21.85
2017-05-12T05:58:15.408Z,21.87
2017-05-12T05:59:15.450Z,21.40
2017-05-12T06:00:15.343Z,21.36
2017-05-12T06:01:21.467Z,21.38
2017-05-12T06:02:15.612Z,21.38
2017-05-12T06:03:15.156Z,21.37
2017-05-12T06:04:14.432Z,21.35
2017-05-12T06:05:15.120Z,21.33
2017-05-12T06:06:15.525Z,21.31
2017-05-12T06:07:22.203Z,21.30
2017-05-12T06:08:15.693Z,21.28
2017-05-12T06:09:16.173Z,21.27
2017-05-12T06:10:13.631Z,21.26
2017-05-12T06:11:15.714Z,21.78
2017-05-12T06:12:18.357Z,21.31
2017-05-12T06:13:15.512Z,21.32
2017-05-12T06:14:11.719Z,21.25
2017-05-12T06:15:14.278Z,21.25
2017-05-12T06:16:14.414Z,21.24
2017-05-12T06:17:14.565Z,21.23
2017-05-12T06:18:13.665Z,21.24
2017-05-12T06:19:14.113Z,21.23
2017-05-12T06:20:14.365Z,21.23
2017-05-12T06:21:13.699Z,21.24
2017-05-12T06:22:13.786Z,21.24
2017-05-12T06:23:14.967Z,21.24
2017-05-12T06:24:14.012Z,21.24
2017-05-12T06:25:14.927Z,21.25
2017-05-12T06:26:14.060Z,21.25
2017-05-12T06:27:14.234Z,21.25
2017-05-12T06:28:15.308Z,21.27
2017-05-12T06:29:15.876Z,21.28
2017-05-12T06:30:14.335Z,21.30
2017-05-12T06:31:15.288Z,21.31
2017-05-12T06:32:12.541Z,21.31
2017-05-12T06:33:14.967Z,21.32
2017-05-12T06:34:14.296Z,21.32
2017-05-12T06:35:14.845Z,21.32
2017-05-12T06:36:14.093Z,21.32
2017-05-12T06:37:14.864Z,21.32
2017-05-12T06:38:11.949Z,21.32
2017-05-12T06:39:14.067Z,21.33
2017-05-12T06:40:14.985Z,21.33
2017-05-12T06:41:15.452Z,21.32
2017-05-12T06:42:15.238Z,21.32
2017-05-12T06:43:14.866Z,21.33
2017-05-12T06:44:15.291Z,21.34
2017-05-12T06:45:15.021Z,21.34
2017-05-12T06:46:14.703Z,21.33
2017-05-12T06:47:14.791Z,21.33
2017-05-12T06:48:15.260Z,21.34
2017-05-12T06:49:14.581Z,21.34
2017-05-12T06:50:14.131Z,21.34
2017-05-12T06:51:14.986Z,21.34
2017-05-12T06:52:15.512Z,21.35
2017-05-12T06:53:13.930Z,21.36
2017-05-12T06:54:22.223Z,21.35
2017-05-12T06:55:14.802Z,21.36
2017-05-12T06:56:14.251Z,21.37
2017-05-12T06:57:13.913Z,21.36
2017-05-12T06:58:14.774Z,21.86
2017-05-12T06:59:14.422Z,21.92
2017-05-12T07:00:17.143Z,21.95
2017-05-12T07:01:14.245Z,21.96
2017-05-12T07:02:15.037Z,21.96
2017-05-12T07:03:14.647Z,21.44
2017-05-12T07:04:14.082Z,21.40
2017-05-12T07:05:14.554Z,21.37
2017-05-12T07:06:13.804Z,21.37
2017-05-12T07:07:14.106Z,21.36
2017-05-12T07:08:11.367Z,21.36
2017-05-12T07:09:14.770Z,21.36
2017-05-12T07:10:17.532Z,21.36
2017-05-12T07:11:12.278Z,21.36
2017-05-12T07:12:14.959Z,21.90
2017-05-12T07:13:16.397Z,21.60
2017-05-12T07:14:13.884Z,21.45
2017-05-12T07:15:14.322Z,21.42
2017-05-12T07:16:14.814Z,21.41
2017-05-12T07:17:14.112Z,21.40
2017-05-12T07:18:14.639Z,21.40
2017-05-12T07:19:14.127Z,21.39
2017-05-12T07:20:14.543Z,21.39
2017-05-12T07:21:14.364Z,21.40
2017-05-12T07:22:15.193Z,21.40
2017-05-12T07:23:14.565Z,21.40
2017-05-12T07:24:14.338Z,21.40
2017-05-12T07:25:14.600Z,21.40
2017-05-12T07:26:14.381Z,21.40
2017-05-12T07:27:15.384Z,21.39
2017-05-12T07:28:13.778Z,21.92
2017-05-12T07:29:13.991Z,21.98
2017-05-12T07:30:14.270Z,22.01
2017-05-12T07:31:14.796Z,22.02
2017-05-12T07:32:14.093Z,22.05
2017-05-12T07:33:15.135Z,21.71
2017-05-12T07:34:15.323Z,21.53
2017-05-12T07:35:14.791Z,21.49
2017-05-12T07:36:14.627Z,21.47
2017-05-12T07:37:13.707Z,21.47
2017-05-12T07:38:14.144Z,21.46
2017-05-12T07:39:14.526Z,21.47
2017-05-12T07:40:12.112Z,21.47
2017-05-12T07:41:14.312Z,22.00
2017-05-12T07:42:14.522Z,22.06
2017-05-12T07:43:13.741Z,22.09
2017-05-12T07:44:14.186Z,21.74
2017-05-12T07:45:14.272Z,21.58
2017-05-12T07:46:15.813Z,21.54
2017-05-12T07:47:14.786Z,21.53
2017-05-12T07:48:15.039Z,21.52
2017-05-12T07:49:11.798Z,21.52
2017-05-12T07:50:15.356Z,21.51
2017-05-12T07:51:15.816Z,21.58
2017-05-12T07:52:15.014Z,21.53
2017-05-12T07:53:12.901Z,21.52
2017-05-12T07:54:15.098Z,21.53
2017-05-12T07:55:15.433Z,21.53
2017-05-12T07:56:14.775Z,21.53
2017-05-12T07:57:15.580Z,21.70
2017-05-12T07:58:14.590Z,21.59
2017-05-12T07:59:14.564Z,21.57
2017-05-12T08:00:14.930Z,21.56
2017-05-12T08:01:16.734Z,21.55
2017-05-12T08:02:15.470Z,21.56
2017-05-12T08:03:14.644Z,21.54
2017-05-12T08:04:14.549Z,21.54
2017-05-12T08:05:15.120Z,21.54
2017-05-12T08:06:15.225Z,21.54
2017-05-12T08:07:16.196Z,21.54
2017-05-12T08:08:16.173Z,21.53
2017-05-12T08:09:15.955Z,21.53
2017-05-12T08:10:15.644Z,21.53
2017-05-12T08:11:11.610Z,21.53
2017-05-12T08:12:11.609Z,21.53
2017-05-12T08:13:18.689Z,21.53
2017-05-12T08:14:15.545Z,21.54
2017-05-12T08:15:14.790Z,21.54
2017-05-12T08:16:14.976Z,21.54
2017-05-12T08:17:15.919Z,21.54
2017-05-12T08:18:14.691Z,21.55
2017-05-12T08:19:14.724Z,21.55
2017-05-12T08:20:14.921Z,21.55
2017-05-12T08:21:14.984Z,21.56
2017-05-12T08:22:15.223Z,21.57
2017-05-12T08:23:16.087Z,21.57
2017-05-12T08:24:15.242Z,21.57
2017-05-12T08:25:16.124Z,21.58
2017-05-12T08:26:15.445Z,21.59
2017-05-12T08:27:15.082Z,21.58
2017-05-12T08:28:21.526Z,21.58
2017-05-12T08:29:15.368Z,21.59
2017-05-12T08:30:14.764Z,21.59
2017-05-12T08:31:12.005Z,21.59
2017-05-12T08:32:15.279Z,21.61
2017-05-12T08:33:15.569Z,21.61
2017-05-12T08:34:14.617Z,21.61
2017-05-12T08:35:15.051Z,21.61
2017-05-12T08:36:15.381Z,21.61
2017-05-12T08:37:16.480Z,21.62
2017-05-12T08:38:14.635Z,21.62
2017-05-12T08:39:12.529Z,21.64
2017-05-12T08:40:15.224Z,21.64
2017-05-12T08:41:15.445Z,21.63
2017-05-12T08:42:14.479Z,21.64
2017-05-12T08:43:14.989Z,21.65
2017-05-12T08:44:12.483Z,21.65
2017-05-12T08:45:15.998Z,21.65
2017-05-12T08:46:15.989Z,21.65
2017-05-12T08:47:15.163Z,21.66
2017-05-12T08:48:15.329Z,21.66
2017-05-12T08:49:13.079Z,21.66
2017-05-12T08:50:16.791Z,21.67
2017-05-12T08:51:15.257Z,21.68
2017-05-12T08:52:16.573Z,21.69
2017-05-12T08:53:15.347Z,21.69
2017-05-12T08:54:14.773Z,21.70
2017-05-12T08:55:15.119Z,21.70
2017-05-12T08:56:15.505Z,21.70
2017-05-12T08:57:15.102Z,21.71
2017-05-12T08:58:15.419Z,21.70
2017-05-12T08:59:14.660Z,21.70
2017-05-12T09:00:15.327Z,21.71
2017-05-12T09:01:15.334Z,21.71
2017-05-12T09:02:16.430Z,21.72
2017-05-12T09:03:15.904Z,21.72
2017-05-12T09:04:15.421Z,21.72
2017-05-12T09:05:14.207Z,21.72
2017-05-12T09:06:12.582Z,21.72
2017-05-12T09:07:15.266Z,21.73
2017-05-12T09:08:16.208Z,21.73
2017-05-12T09:09:15.279Z,21.74
2017-05-12T09:10:12.855Z,21.73
2017-05-12T09:11:15.158Z,21.74
2017-05-12T09:12:15.362Z,22.27
2017-05-12T09:13:15.256Z,22.34
2017-05-12T09:14:16.134Z,22.36
2017-05-12T09:15:15.263Z,22.35
2017-05-12T09:16:18.029Z,21.84
2017-05-12T09:17:15.203Z,21.80
2017-05-12T09:18:15.930Z,21.77
2017-05-12T09:19:14.943Z,21.76
2017-05-12T09:20:15.417Z,21.77
2017-05-12T09:21:14.552Z,21.77
2017-05-12T09:22:15.177Z,21.78
2017-05-12T09:23:12.080Z,21.76
2017-05-12T09:24:15.832Z,21.78
2017-05-12T09:25:15.069Z,21.78
2017-05-12T09:26:16.342Z,21.77
2017-05-12T09:27:15.594Z,21.77
2017-05-12T09:28:14.775Z,21.76
2017-05-12T09:29:15.511Z,21.77
2017-05-12T09:30:15.310Z,21.77
2017-05-12T09:31:15.605Z,21.77
2017-05-12T09:32:14.879Z,21.77
2017-05-12T09:33:15.221Z,21.77
2017-05-12T09:34:15.571Z,21.77
2017-05-12T09:35:14.837Z,21.75
2017-05-12T09:36:17.460Z,21.75
2017-05-12T09:37:14.629Z,21.75
2017-05-12T09:38:14.854Z,21.76
2017-05-12T09:39:14.985Z,21.77
2017-05-12T09:40:16.009Z,21.77
2017-05-12T09:41:15.083Z,21.78
2017-05-12T09:42:15.734Z,21.78
2017-05-12T09:43:15.004Z,21.79
2017-05-12T09:44:15.298Z,21.80
2017-05-12T09:45:12.548Z,22.34
2017-05-12T09:46:11.293Z,21.86
2017-05-12T09:47:15.700Z,21.82
2017-05-12T09:48:15.132Z,22.34
2017-05-12T09:49:11.523Z,22.38
2017-05-12T09:50:14.990Z,21.87
2017-05-12T09:51:17.069Z,21.83
2017-05-12T09:52:16.621Z,21.81
2017-05-12T09:53:15.062Z,21.80
2017-05-12T09:54:15.246Z,21.79
2017-05-12T09:55:16.157Z,21.79
2017-05-12T09:56:11.245Z,21.78
2017-05-12T09:57:15.989Z,21.78
2017-05-12T09:58:15.483Z,21.78
2017-05-12T09:59:14.947Z,21.78
2017-05-12T10:00:15.959Z,21.78
2017-05-12T10:01:15.229Z,21.77
2017-05-12T10:02:15.711Z,21.78
2017-05-12T10:03:16.356Z,21.78
2017-05-12T10:04:15.828Z,21.77
2017-05-12T10:05:15.099Z,21.77
2017-05-12T10:06:15.888Z,21.80
2017-05-12T10:07:15.496Z,21.77
2017-05-12T10:08:14.900Z,21.78
2017-05-12T10:09:15.685Z,21.77
2017-05-12T10:10:15.279Z,21.95
2017-05-12T10:11:15.933Z,21.82
2017-05-12T10:12:15.061Z,21.80
2017-05-12T10:13:15.194Z,21.79
2017-05-12T10:14:15.698Z,21.79
2017-05-12T10:15:15.860Z,21.79
2017-05-12T10:16:15.208Z,21.80
2017-05-12T10:17:16.218Z,21.79
2017-05-12T10:18:16.158Z,21.80
2017-05-12T10:19:16.414Z,21.80
2017-05-12T10:20:17.003Z,21.79
2017-05-12T10:21:16.780Z,21.79
2017-05-12T10:22:15.516Z,21.79
2017-05-12T10:23:15.086Z,21.80
2017-05-12T10:24:16.271Z,21.80
2017-05-12T10:25:15.816Z,21.81
2017-05-12T10:26:12.031Z,21.80
2017-05-12T10:27:15.815Z,21.80
2017-05-12T10:28:15.282Z,21.82
2017-05-12T10:29:15.974Z,21.82
2017-05-12T10:30:16.819Z,21.83
2017-05-12T10:31:12.228Z,21.84
2017-05-12T10:32:15.380Z,21.84
2017-05-12T10:33:15.805Z,21.85
2017-05-12T10:34:14.858Z,21.85
2017-05-12T10:35:15.266Z,21.86
2017-05-12T10:36:16.065Z,21.86
2017-05-12T10:37:13.462Z,21.86
2017-05-12T10:38:14.744Z,21.88
2017-05-12T10:39:15.962Z,21.88
2017-05-12T10:40:15.141Z,21.87
2017-05-12T10:41:15.203Z,21.85
2017-05-12T10:42:14.871Z,21.85
2017-05-12T10:43:15.247Z,21.85
2017-05-12T10:44:16.166Z,21.84
2017-05-12T10:45:15.411Z,21.85
2017-05-12T10:46:15.098Z,21.85
2017-05-12T10:47:15.446Z,21.86
2017-05-12T10:48:15.493Z,21.86
2017-05-12T10:49:14.921Z,21.85
2017-05-12T10:50:16.974Z,21.85
2017-05-12T10:51:12.269Z,21.84
2017-05-12T10:52:15.516Z,21.86
2017-05-12T10:53:15.756Z,21.87
2017-05-12T10:54:15.878Z,21.89
2017-05-12T10:55:15.331Z,21.87
2017-05-12T10:56:15.468Z,21.87
2017-05-12T10:57:14.840Z,21.86
2017-05-12T10:58:15.390Z,21.86
2017-05-12T10:59:14.503Z,21.86
2017-05-12T11:00:14.907Z,21.85
2017-05-12T11:01:16.047Z,21.87
2017-05-12T11:02:16.613Z,21.88
2017-05-12T11:03:14.899Z,21.90
2017-05-12T11:04:11.849Z,21.90
2017-05-12T11:05:15.249Z,21.92
2017-05-12T11:06:15.739Z,21.92
2017-05-12T11:07:15.081Z,21.91
2017-05-12T11:08:12.641Z,21.90
2017-05-12T11:09:15.229Z,22.45
2017-05-12T11:10:15.786Z,22.49
2017-05-12T11:11:15.706Z,22.51
2017-05-12T11:12:12.089Z,22.53
2017-05-12T11:13:14.991Z,22.53
2017-05-12T11:14:15.593Z,22.53
2017-05-12T11:15:14.730Z,22.51
2017-05-12T11:16:15.254Z,22.14
2017-05-12T11:17:15.761Z,21.97
2017-05-12T11:18:10.585Z,21.91
2017-05-12T11:19:15.755Z,21.90
2017-05-12T11:20:16.577Z,21.88
2017-05-12T11:21:14.749Z,21.87
2017-05-12T11:22:12.697Z,21.86
2017-05-12T11:23:14.474Z,22.39
2017-05-12T11:24:15.713Z,22.44
2017-05-12T11:25:10.600Z,22.47
2017-05-12T11:26:14.793Z,21.94
2017-05-12T11:27:15.720Z,21.89
2017-05-12T11:28:15.538Z,21.90
2017-05-12T11:29:15.152Z,22.41
2017-05-12T11:30:15.419Z,22.44
2017-05-12T11:31:15.195Z,22.47
2017-05-12T11:32:15.796Z,22.17
2017-05-12T11:33:14.904Z,21.97
2017-05-12T11:34:15.256Z,21.93
2017-05-12T11:35:15.008Z,21.92
2017-05-12T11:36:15.461Z,21.92
2017-05-12T11:37:12.522Z,21.92
2017-05-12T11:38:14.784Z,21.92
2017-05-12T11:39:15.344Z,21.92
2017-05-12T11:40:15.173Z,21.91
2017-05-12T11:41:15.097Z,21.90
2017-05-12T11:42:15.819Z,21.89
2017-05-12T11:43:15.860Z,21.88
2017-05-12T11:44:14.932Z,21.87
2017-05-12T11:45:14.863Z,21.87
2017-05-12T11:46:16.179Z,21.86
2017-05-12T11:47:16.354Z,21.86
2017-05-12T11:48:16.731Z,21.86
2017-05-12T11:49:12.362Z,21.85
2017-05-12T11:50:12.608Z,21.85
2017-05-12T11:51:15.047Z,21.85
2017-05-12T11:52:11.065Z,21.84
2017-05-12T11:53:14.995Z,21.84
2017-05-12T11:54:16.144Z,21.85
2017-05-12T11:55:15.298Z,21.85
2017-05-12T11:56:16.788Z,21.84
2017-05-12T11:57:16.291Z,21.84
2017-05-12T11:58:15.564Z,21.84
2017-05-12T11:59:15.341Z,21.84
2017-05-12T12:00:15.323Z,21.84
2017-05-12T12:01:16.484Z,21.84
2017-05-12T12:02:15.543Z,21.85
2017-05-12T12:03:14.857Z,21.83
2017-05-12T12:04:15.142Z,21.83
2017-05-12T12:05:15.577Z,21.83
2017-05-12T12:06:14.605Z,21.84
2017-05-12T12:07:14.842Z,21.83
2017-05-12T12:08:14.851Z,21.85
2017-05-12T12:09:15.436Z,21.84
2017-05-12T12:10:14.794Z,21.84
2017-05-12T12:11:16.131Z,21.85
2017-05-12T12:12:15.573Z,21.85
2017-05-12T12:13:14.914Z,21.84
2017-05-12T12:14:14.921Z,21.84
2017-05-12T12:15:12.794Z,21.84
2017-05-12T12:16:14.608Z,22.38
2017-05-12T12:17:11.482Z,21.89
2017-05-12T12:18:14.741Z,21.86
2017-05-12T12:19:15.874Z,21.85
2017-05-12T12:20:15.795Z,21.84
2017-05-12T12:21:15.008Z,21.85
2017-05-12T12:22:12.860Z,21.84
2017-05-12T12:23:15.358Z,21.84
2017-05-12T12:24:16.399Z,21.84
2017-05-12T12:25:16.109Z,21.85
2017-05-12T12:26:15.141Z,22.38
2017-05-12T12:27:15.729Z,22.42
2017-05-12T12:28:15.878Z,22.46
2017-05-12T12:29:15.383Z,22.47
2017-05-12T12:30:12.921Z,22.49
2017-05-12T12:31:15.216Z,22.49
2017-05-12T12:32:15.227Z,22.49
2017-05-12T12:33:15.651Z,22.50
2017-05-12T12:34:14.662Z,21.98
2017-05-12T12:35:14.913Z,21.93
2017-05-12T12:36:14.599Z,21.91
2017-05-12T12:37:15.516Z,21.90
2017-05-12T12:38:14.832Z,21.89
2017-05-12T12:39:15.766Z,21.90
2017-05-12T12:40:14.610Z,21.91
2017-05-12T12:41:15.057Z,21.91
2017-05-12T12:42:15.680Z,21.92
2017-05-12T12:43:14.620Z,21.91
2017-05-12T12:44:15.306Z,21.91
2017-05-12T12:45:15.910Z,21.89
2017-05-12T12:46:14.985Z,21.89
2017-05-12T12:47:15.128Z,21.88
2017-05-12T12:48:16.479Z,21.89
2017-05-12T12:49:14.602Z,21.90
2017-05-12T12:50:15.706Z,21.91
2017-05-12T12:51:14.987Z,21.93
2017-05-12T12:52:15.654Z,21.92
2017-05-12T12:53:16.062Z,21.93
2017-05-12T12:54:15.512Z,21.94
2017-05-12T12:55:14.583Z,21.95
2017-05-12T12:56:15.243Z,21.96
2017-05-12T12:57:15.486Z,21.97
2017-05-12T12:58:12.449Z,21.97
2017-05-12T12:59:15.451Z,22.53
2017-05-12T13:00:12.684Z,22.55
2017-05-12T13:01:14.604Z,22.22
2017-05-12T13:02:12.661Z,22.05
2017-05-12T13:03:15.366Z,22.54
2017-05-12T13:04:15.606Z,22.57
2017-05-12T13:05:14.957Z,22.57
2017-05-12T13:06:15.577Z,22.60
2017-05-12T13:07:14.737Z,22.60
2017-05-12T13:08:15.132Z,22.61
2017-05-12T13:09:11.266Z,22.62
2017-05-12T13:10:15.498Z,22.63
2017-05-12T13:11:15.337Z,22.66
2017-05-12T13:12:15.657Z,22.30
2017-05-12T13:13:15.325Z,22.12
2017-05-12T13:14:13.035Z,22.09
2017-05-12T13:15:11.514Z,22.07
2017-05-12T13:16:15.043Z,22.06
2017-05-12T13:17:15.431Z,22.06
2017-05-12T13:18:14.925Z,22.06
2017-05-12T13:19:14.936Z,22.07
2017-05-12T13:20:15.364Z,22.08
2017-05-12T13:21:16.019Z,22.08
2017-05-12T13:22:15.761Z,22.09
2017-05-12T13:23:15.693Z,22.12
2017-05-12T13:24:15.704Z,22.11
2017-05-12T13:25:15.074Z,22.11
2017-05-12T13:26:15.200Z,22.11
2017-05-12T13:27:15.572Z,22.12
2017-05-12T13:28:14.811Z,22.13
2017-05-12T13:29:14.793Z,22.13
2017-05-12T13:30:15.394Z,22.14
2017-05-12T13:31:15.050Z,22.14
2017-05-12T13:32:15.486Z,22.14
2017-05-12T13:33:14.848Z,22.13
2017-05-12T13:34:15.185Z,22.11
2017-05-12T13:35:14.763Z,22.12
2017-05-12T13:36:16.003Z,22.66
2017-05-12T13:37:15.095Z,22.72
2017-05-12T13:38:17.599Z,22.73
2017-05-12T13:39:14.824Z,22.75
2017-05-12T13:40:15.113Z,22.25
2017-05-12T13:41:15.514Z,22.21
2017-05-12T13:42:14.715Z,22.20
2017-05-12T13:43:14.944Z,22.21
2017-05-12T13:44:15.245Z,22.21
2017-05-12T13:45:10.925Z,22.22
2017-05-12T13:46:14.901Z,22.22
2017-05-12T13:47:16.786Z,22.24
2017-05-12T13:48:15.291Z,22.25
2017-05-12T13:49:16.484Z,22.25
2017-05-12T13:50:15.441Z,22.27
2017-05-12T13:51:15.492Z,22.28
2017-05-12T13:52:15.085Z,22.28
2017-05-12T13:53:15.203Z,22.30
2017-05-12T13:54:15.388Z,22.31
2017-05-12T13:55:16.436Z,22.31
2017-05-12T13:56:14.882Z,22.33
2017-05-12T13:57:14.993Z,22.34
2017-05-12T13:58:14.962Z,22.37
2017-05-12T13:59:15.541Z,22.36
2017-05-12T14:00:14.783Z,22.37
2017-05-12T14:01:15.643Z,22.39
2017-05-12T14:02:14.899Z,22.91
2017-05-12T14:03:15.520Z,22.95
2017-05-12T14:04:14.764Z,22.48
2017-05-12T14:05:15.200Z,22.46
2017-05-12T14:06:12.118Z,22.45
2017-05-12T14:07:16.011Z,22.43
2017-05-12T14:08:16.018Z,22.44
2017-05-12T14:09:15.329Z,22.46
2017-05-12T14:10:15.499Z,22.46
2017-05-12T14:11:14.726Z,22.47
2017-05-12T14:12:15.058Z,22.48
2017-05-12T14:13:15.463Z,22.49
2017-05-12T14:14:14.989Z,22.50
2017-05-12T14:15:15.963Z,22.47
2017-05-12T14:16:15.700Z,22.44
2017-05-12T14:17:15.318Z,22.44
2017-05-12T14:18:12.673Z,22.42
2017-05-12T14:19:14.962Z,22.40
2017-05-12T14:20:12.655Z,22.38
2017-05-12T14:21:15.927Z,22.89
2017-05-12T14:22:15.255Z,22.93
2017-05-12T14:23:12.906Z,22.92
2017-05-12T14:24:15.027Z,22.94
2017-05-12T14:25:15.620Z,22.58
2017-05-12T14:26:15.006Z,22.41
2017-05-12T14:27:15.544Z,22.35
2017-05-12T14:28:14.823Z,22.30
2017-05-12T14:29:15.120Z,22.30
2017-05-12T14:30:15.094Z,22.30
2017-05-12T14:31:16.081Z,22.29
2017-05-12T14:32:15.111Z,22.31
2017-05-12T14:33:15.293Z,22.33
2017-05-12T14:34:17.708Z,22.36
2017-05-12T14:35:15.041Z,22.40
2017-05-12T14:36:15.403Z,22.40
2017-05-12T14:37:14.693Z,22.39
2017-05-12T14:38:14.814Z,22.37
2017-05-12T14:39:15.256Z,22.35
2017-05-12T14:40:15.980Z,22.35
2017-05-12T14:41:15.183Z,22.34
2017-05-12T14:42:15.986Z,22.32
2017-05-12T14:43:15.505Z,22.30
2017-05-12T14:44:16.027Z,22.30
2017-05-12T14:45:15.596Z,22.27
2017-05-12T14:46:15.671Z,22.80
2017-05-12T14:47:14.842Z,22.51
2017-05-12T14:48:16.247Z,22.33
2017-05-12T14:49:15.215Z,22.81
2017-05-12T14:50:16.087Z,22.47
2017-05-12T14:51:15.583Z,22.31
2017-05-12T14:52:15.125Z,22.27
2017-05-12T14:53:13.005Z,22.23
2017-05-12T14:54:15.112Z,22.22
2017-05-12T14:55:15.355Z,22.20
2017-05-12T14:56:15.785Z,22.20
2017-05-12T14:57:15.514Z,22.18
2017-05-12T14:58:14.967Z,22.18
2017-05-12T14:59:14.988Z,22.18
2017-05-12T15:00:15.772Z,22.17
2017-05-12T15:01:15.789Z,22.16
2017-05-12T15:02:14.834Z,22.16
2017-05-12T15:03:14.384Z,22.15
2017-05-12T15:04:15.057Z,22.15
2017-05-12T15:05:16.209Z,22.15
2017-05-12T15:06:21.772Z,22.14
2017-05-12T15:07:14.905Z,22.13
2017-05-12T15:08:15.462Z,22.13
2017-05-12T15:09:14.506Z,22.13
2017-05-12T15:10:15.491Z,22.13
2017-05-12T15:11:14.518Z,22.11
2017-05-12T15:12:14.685Z,22.11
2017-05-12T15:13:14.522Z,22.12
2017-05-12T15:14:14.784Z,22.11
2017-05-12T15:15:14.958Z,22.10
2017-05-12T15:16:15.628Z,22.09
2017-05-12T15:17:15.044Z,22.10
2017-05-12T15:18:15.434Z,22.08
2017-05-12T15:19:14.961Z,22.09
2017-05-12T15:20:15.855Z,22.08
2017-05-12T15:21:14.689Z,22.08
2017-05-12T15:22:15.071Z,22.08
2017-05-12T15:23:15.569Z,22.07
2017-05-12T15:24:11.018Z,22.07
2017-05-12T15:25:16.205Z,22.07
2017-05-12T15:26:15.474Z,22.06
2017-05-12T15:27:14.506Z,22.06
2017-05-12T15:28:15.409Z,22.06
2017-05-12T15:29:15.325Z,22.05
2017-05-12T15:30:13.106Z,22.04
2017-05-12T15:31:15.154Z,22.05
2017-05-12T15:32:12.522Z,22.04
2017-05-12T15:33:15.259Z,22.04
2017-05-12T15:34:12.678Z,22.03
2017-05-12T15:35:10.409Z,22.56
2017-05-12T15:36:15.053Z,22.31
2017-05-12T15:37:15.933Z,22.12
2017-05-12T15:38:15.343Z,22.08
2017-05-12T15:39:15.386Z,22.06
2017-05-12T15:40:16.516Z,22.06
2017-05-12T15:41:15.232Z,22.08
2017-05-12T15:42:12.141Z,22.08
2017-05-12T15:43:16.225Z,22.14
2017-05-12T15:44:14.534Z,22.11
2017-05-12T15:45:14.669Z,22.10
2017-05-12T15:46:14.512Z,22.09
2017-05-12T15:47:15.135Z,22.09
2017-05-12T15:48:15.335Z,22.09
2017-05-12T15:49:15.657Z,22.08
2017-05-12T15:50:14.829Z,22.07
2017-05-12T15:51:15.918Z,22.07
2017-05-12T15:52:14.854Z,22.05
2017-05-12T15:53:13.266Z,22.06
2017-05-12T15:54:15.080Z,22.59
2017-05-12T15:55:15.116Z,22.65
2017-05-12T15:56:15.913Z,22.66
2017-05-12T15:57:13.417Z,22.68
2017-05-12T15:58:15.397Z,22.32
2017-05-12T15:59:15.048Z,22.14
2017-05-12T16:00:15.983Z,22.10
2017-05-12T16:01:10.187Z,22.07
2017-05-12T16:02:14.661Z,22.05
2017-05-12T16:03:14.888Z,22.04
2017-05-12T16:04:15.071Z,22.04
2017-05-12T16:05:15.833Z,22.10
2017-05-12T16:06:14.808Z,22.03
2017-05-12T16:07:15.611Z,22.03
2017-05-12T16:08:14.990Z,22.04
2017-05-12T16:09:15.513Z,22.04
2017-05-12T16:10:14.830Z,22.04
2017-05-12T16:11:15.237Z,22.04
2017-05-12T16:12:15.895Z,22.04
2017-05-12T16:13:15.062Z,22.04
2017-05-12T16:14:16.102Z,22.04
2017-05-12T16:15:15.312Z,22.02
2017-05-12T16:16:15.547Z,22.07
2017-05-12T16:17:15.207Z,22.10
2017-05-12T16:18:15.680Z,22.10
2017-05-12T16:19:16.056Z,22.10
2017-05-12T16:20:15.015Z,22.10
2017-05-12T16:21:15.746Z,22.10
2017-05-12T16:22:14.701Z,22.12
2017-05-12T16:23:15.262Z,22.16
2017-05-12T16:24:15.565Z,22.21
2017-05-12T16:25:15.941Z,22.25
2017-05-12T16:26:15.205Z,22.25
2017-05-12T16:27:15.588Z,22.29
2017-05-12T16:28:11.998Z,22.33
2017-05-12T16:29:15.031Z,22.36
2017-05-12T16:30:15.040Z,22.35
2017-05-12T16:31:15.521Z,22.33
2017-05-12T16:32:14.469Z,22.31
2017-05-12T16:33:11.388Z,22.28
2017-05-12T16:34:16.054Z,22.28
2017-05-12T16:35:15.836Z,22.28
2017-05-12T16:36:15.153Z,22.26
2017-05-12T16:37:15.337Z,22.25
2017-05-12T16:38:15.375Z,22.24
2017-05-12T16:39:16.218Z,22.24
2017-05-12T16:40:15.974Z,22.26
2017-05-12T16:41:16.006Z,22.23
2017-05-12T16:42:16.405Z,22.22
2017-05-12T16:43:16.229Z,22.23
2017-05-12T16:44:17.682Z,22.20
2017-05-12T16:45:18.123Z,22.19
2017-05-12T16:46:12.008Z,22.19
2017-05-12T16:47:15.541Z,22.17
2017-05-12T16:48:15.379Z,22.17
2017-05-12T16:49:15.441Z,22.16
2017-05-12T16:50:14.997Z,22.16
2017-05-12T16:51:15.075Z,22.15
2017-05-12T16:52:15.229Z,22.14
2017-05-12T16:53:15.380Z,22.13
2017-05-12T16:54:14.739Z,22.13
2017-05-12T16:55:14.755Z,22.13
2017-05-12T16:56:15.307Z,22.12
2017-05-12T16:57:15.817Z,22.66
2017-05-12T16:58:15.213Z,22.38
2017-05-12T16:59:15.540Z,22.18
2017-05-12T17:00:15.026Z,22.13
2017-05-12T17:01:14.681Z,22.12
2017-05-12T17:02:15.955Z,22.11
2017-05-12T17:03:15.893Z,22.10
2017-05-12T17:04:14.894Z,22.09
2017-05-12T17:05:15.072Z,22.09
2017-05-12T17:06:15.992Z,22.09
2017-05-12T17:07:15.874Z,22.09
2017-05-12T17:08:14.978Z,22.09
2017-05-12T17:09:14.808Z,22.10
2017-05-12T17:10:15.224Z,22.09
2017-05-12T17:11:15.801Z,22.09
2017-05-12T17:12:15.423Z,22.09
2017-05-12T17:13:14.221Z,22.08
2017-05-12T17:14:15.484Z,22.08
2017-05-12T17:15:14.607Z,22.08
2017-05-12T17:16:15.052Z,22.08
2017-05-12T17:17:15.391Z,22.26
2017-05-12T17:18:14.609Z,22.12
2017-05-12T17:19:12.970Z,22.09
2017-05-12T17:20:14.958Z,22.08
2017-05-12T17:21:15.215Z,22.07
2017-05-12T17:22:15.789Z,22.06
2017-05-12T17:23:15.070Z,22.06
2017-05-12T17:24:12.641Z,22.05
2017-05-12T17:25:15.164Z,22.05
2017-05-12T17:26:15.476Z,22.04
2017-05-12T17:27:15.193Z,22.13
2017-05-12T17:28:15.331Z,22.57
2017-05-12T17:29:15.259Z,22.28
2017-05-12T17:30:15.511Z,22.12
2017-05-12T17:31:14.831Z,22.08
2017-05-12T17:32:15.827Z,22.06